sensor_id;sensor_type;location;lat;lon;timestamp;pressure;altitude;pressure_sealevel;temperature;humidity
44297;BME280;51842;47.450;8.654;2023-02-12T00:01:27;97293.50;;;-2.40;98.18
44297;BME280;51842;47.450;8.654;2023-02-12T00:03:57;97288.13;;;-2.39;96.93
44297;BME280;51842;47.450;8.654;2023-02-12T00:06:24;97274.25;;;-2.39;96.85
44297;BME280;51842;47.450;8.654;2023-02-12T00:08:56;97269.84;;;-2.39;96.98
44297;BME280;51842;47.450;8.654;2023-02-12T00:11:27;97260.09;;;-2.37;97.51
44297;BME280;51842;47.450;8.654;2023-02-12T00:13:58;97267.50;;;-2.32;97.11
44297;BME280;51842;47.450;8.654;2023-02-12T00:16:27;97273.56;;;-2.31;96.33
44297;BME280;51842;47.450;8.654;2023-02-12T00:18:56;97266.66;;;-2.33;96.77
44297;BME280;51842;47.450;8.654;2023-02-12T00:21:24;97275.19;;;-2.30;97.10
44297;BME280;51842;47.450;8.654;2023-02-12T00:23:50;97270.50;;;-2.27;96.75
44297;BME280;51842;47.450;8.654;2023-02-12T00:26:20;97273.00;;;-2.25;96.59
44297;BME280;51842;47.450;8.654;2023-02-12T00:28:48;97264.19;;;-2.24;96.44
44297;BME280;51842;47.450;8.654;2023-02-12T00:31:26;97272.00;;;-2.24;96.45
44297;BME280;51842;47.450;8.654;2023-02-12T00:33:53;97269.41;;;-2.24;95.59
44297;BME280;51842;47.450;8.654;2023-02-12T00:36:25;97271.47;;;-2.28;94.94
44297;BME280;51842;47.450;8.654;2023-02-12T00:38:55;97270.09;;;-2.32;94.97
44297;BME280;51842;47.450;8.654;2023-02-12T00:41:23;97264.34;;;-2.36;94.37
44297;BME280;51842;47.450;8.654;2023-02-12T00:43:50;97263.16;;;-2.41;94.64
44297;BME280;51842;47.450;8.654;2023-02-12T00:46:19;97273.03;;;-2.45;94.56
44297;BME280;51842;47.450;8.654;2023-02-12T00:48:53;97284.72;;;-2.49;94.81
44297;BME280;51842;47.450;8.654;2023-02-12T00:51:20;97283.38;;;-2.53;95.31
44297;BME280;51842;47.450;8.654;2023-02-12T00:53:46;97289.81;;;-2.57;95.71
44297;BME280;51842;47.450;8.654;2023-02-12T00:56:21;97299.59;;;-2.59;95.24
44297;BME280;51842;47.450;8.654;2023-02-12T00:58:46;97292.03;;;-2.62;95.17
44297;BME280;51842;47.450;8.654;2023-02-12T01:01:16;97284.34;;;-2.64;95.19
44297;BME280;51842;47.450;8.654;2023-02-12T01:03:48;97278.28;;;-2.64;95.23
44297;BME280;51842;47.450;8.654;2023-02-12T01:06:14;97281.19;;;-2.67;94.96
44297;BME280;51842;47.450;8.654;2023-02-12T01:08:40;97282.16;;;-2.68;95.78
44297;BME280;51842;47.450;8.654;2023-02-12T01:11:06;97282.28;;;-2.70;96.06
44297;BME280;51842;47.450;8.654;2023-02-12T01:13:34;97284.78;;;-2.68;97.08
44297;BME280;51842;47.450;8.654;2023-02-12T01:16:18;97284.78;;;-2.68;97.61
44297;BME280;51842;47.450;8.654;2023-02-12T01:18:46;97276.94;;;-2.68;97.22
44297;BME280;51842;47.450;8.654;2023-02-12T01:21:18;97274.19;;;-2.67;97.06
44297;BME280;51842;47.450;8.654;2023-02-12T01:23:45;97275.69;;;-2.64;96.49
44297;BME280;51842;47.450;8.654;2023-02-12T01:26:14;97279.41;;;-2.67;96.57
44297;BME280;51842;47.450;8.654;2023-02-12T01:28:44;97279.69;;;-2.70;96.54
44297;BME280;51842;47.450;8.654;2023-02-12T01:31:22;97274.88;;;-2.74;96.69
44297;BME280;51842;47.450;8.654;2023-02-12T01:33:52;97271.06;;;-2.80;96.89
44297;BME280;51842;47.450;8.654;2023-02-12T01:36:19;97266.53;;;-2.88;97.64
44297;BME280;51842;47.450;8.654;2023-02-12T01:38:45;97273.66;;;-2.90;97.06
44297;BME280;51842;47.450;8.654;2023-02-12T01:41:24;97272.59;;;-2.97;97.18
44297;BME280;51842;47.450;8.654;2023-02-12T01:44:20;97265.16;;;-3.02;97.50
44297;BME280;51842;47.450;8.654;2023-02-12T01:47:02;97276.41;;;-3.01;98.01
44297;BME280;51842;47.450;8.654;2023-02-12T01:49:40;97270.25;;;-3.00;97.68
44297;BME280;51842;47.450;8.654;2023-02-12T01:52:22;97268.47;;;-2.99;97.46
44297;BME280;51842;47.450;8.654;2023-02-12T01:54:55;97272.16;;;-3.02;97.33
44297;BME280;51842;47.450;8.654;2023-02-12T01:57:24;97256.81;;;-3.05;97.71
44297;BME280;51842;47.450;8.654;2023-02-12T01:59:55;97258.16;;;-3.01;97.48
44297;BME280;51842;47.450;8.654;2023-02-12T02:02:26;97258.03;;;-2.99;97.44
44297;BME280;51842;47.450;8.654;2023-02-12T02:05:00;97262.44;;;-3.00;96.92
44297;BME280;51842;47.450;8.654;2023-02-12T02:07:28;97256.53;;;-3.02;96.37
44297;BME280;51842;47.450;8.654;2023-02-12T02:09:57;97253.38;;;-3.06;96.23
44297;BME280;51842;47.450;8.654;2023-02-12T02:12:25;97257.22;;;-3.10;95.97
44297;BME280;51842;47.450;8.654;2023-02-12T02:15:11;97255.56;;;-3.11;97.21
44297;BME280;51842;47.450;8.654;2023-02-12T02:28:26;97240.09;;;-3.22;97.14
44297;BME280;51842;47.450;8.654;2023-02-12T02:36:49;97244.19;;;-3.29;98.67
44297;BME280;51842;47.450;8.654;2023-02-12T02:40:02;97243.38;;;-3.30;98.06
44297;BME280;51842;47.450;8.654;2023-02-12T02:43:03;97244.44;;;-3.32;98.08
44297;BME280;51842;47.450;8.654;2023-02-12T02:45:46;97239.66;;;-3.37;97.76
44297;BME280;51842;47.450;8.654;2023-02-12T02:48:28;97247.91;;;-3.41;97.96
44297;BME280;51842;47.450;8.654;2023-02-12T02:51:11;97242.38;;;-3.48;98.84
44297;BME280;51842;47.450;8.654;2023-02-12T02:54:18;97248.72;;;-3.51;98.57
44297;BME280;51842;47.450;8.654;2023-02-12T02:56:55;97257.06;;;-3.57;99.12
44297;BME280;51842;47.450;8.654;2023-02-12T02:59:36;97260.63;;;-3.58;99.46
44297;BME280;51842;47.450;8.654;2023-02-12T03:02:28;97252.13;;;-3.60;99.51
44297;BME280;51842;47.450;8.654;2023-02-12T03:05:32;97248.84;;;-3.62;100.00
44297;BME280;51842;47.450;8.654;2023-02-12T03:08:54;97244.44;;;-3.61;100.00
44297;BME280;51842;47.450;8.654;2023-02-12T03:11:32;97242.66;;;-3.61;100.00
44297;BME280;51842;47.450;8.654;2023-02-12T03:17:23;97240.47;;;-3.65;100.00
44297;BME280;51842;47.450;8.654;2023-02-12T03:20:24;97243.47;;;-3.70;99.84
44297;BME280;51842;47.450;8.654;2023-02-12T03:23:13;97250.34;;;-3.69;100.00
44297;BME280;51842;47.450;8.654;2023-02-12T03:26:48;97240.84;;;-3.70;100.00
44297;BME280;51842;47.450;8.654;2023-02-12T03:29:18;97249.91;;;-3.74;100.00
44297;BME280;51842;47.450;8.654;2023-02-12T03:41:03;97235.53;;;-3.68;100.00
44297;BME280;51842;47.450;8.654;2023-02-12T03:43:58;97238.84;;;-3.66;100.00
44297;BME280;51842;47.450;8.654;2023-02-12T03:52:19;97230.59;;;-3.52;100.00
44297;BME280;51842;47.450;8.654;2023-02-12T03:54:45;97237.59;;;-3.53;100.00
44297;BME280;51842;47.450;8.654;2023-02-12T03:57:19;97229.91;;;-3.54;100.00
44297;BME280;51842;47.450;8.654;2023-02-12T03:59:47;97228.41;;;-3.57;100.00
44297;BME280;51842;47.450;8.654;2023-02-12T04:02:18;97234.84;;;-3.51;100.00
44297;BME280;51842;47.450;8.654;2023-02-12T04:04:46;97237.88;;;-3.46;100.00
44297;BME280;51842;47.450;8.654;2023-02-12T04:07:14;97237.75;;;-3.35;100.00
44297;BME280;51842;47.450;8.654;2023-02-12T04:09:41;97233.63;;;-3.28;100.00
44297;BME280;51842;47.450;8.654;2023-02-12T04:18:30;97239.94;;;-2.54;100.00
44297;BME280;51842;47.450;8.654;2023-02-12T04:26:56;97253.13;;;-1.81;98.84
44297;BME280;51842;47.450;8.654;2023-02-12T04:29:58;97248.94;;;-1.74;97.65
44297;BME280;51842;47.450;8.654;2023-02-12T04:32:44;97253.88;;;-1.71;98.10
44297;BME280;51842;47.450;8.654;2023-02-12T04:35:47;97258.22;;;-1.61;96.92
44297;BME280;51842;47.450;8.654;2023-02-12T04:38:29;97257.94;;;-1.58;96.55
44297;BME280;51842;47.450;8.654;2023-02-12T04:40:58;97260.09;;;-1.54;95.90
44297;BME280;51842;47.450;8.654;2023-02-12T04:43:35;97256.13;;;-1.58;95.98
44297;BME280;51842;47.450;8.654;2023-02-12T04:46:07;97254.44;;;-1.49;95.62
44297;BME280;51842;47.450;8.654;2023-02-12T04:48:45;97256.75;;;-1.46;95.59
44297;BME280;51842;47.450;8.654;2023-02-12T04:51:13;97256.59;;;-1.45;95.95
44297;BME280;51842;47.450;8.654;2023-02-12T04:53:41;97258.25;;;-1.44;95.63
44297;BME280;51842;47.450;8.654;2023-02-12T04:56:11;97249.59;;;-1.44;96.10
44297;BME280;51842;47.450;8.654;2023-02-12T04:58:39;97252.22;;;-1.44;96.29
44297;BME280;51842;47.450;8.654;2023-02-12T05:01:06;97261.00;;;-1.45;95.98
44297;BME280;51842;47.450;8.654;2023-02-12T05:03:35;97254.28;;;-1.48;96.81
44297;BME280;51842;47.450;8.654;2023-02-12T05:06:08;97252.81;;;-1.50;97.08
44297;BME280;51842;47.450;8.654;2023-02-12T05:08:34;97245.78;;;-1.50;97.09
44297;BME280;51842;47.450;8.654;2023-02-12T05:11:10;97249.50;;;-1.52;97.10
44297;BME280;51842;47.450;8.654;2023-02-12T05:13:37;97253.91;;;-1.53;97.22
44297;BME280;51842;47.450;8.654;2023-02-12T05:16:07;97254.72;;;-1.52;97.51
44297;BME280;51842;47.450;8.654;2023-02-12T05:18:34;97253.75;;;-1.51;97.31
44297;BME280;51842;47.450;8.654;2023-02-12T05:21:04;97252.81;;;-1.50;97.02
44297;BME280;51842;47.450;8.654;2023-02-12T05:23:35;97249.63;;;-1.54;97.08
44297;BME280;51842;47.450;8.654;2023-02-12T05:26:06;97240.84;;;-1.53;97.25
44297;BME280;51842;47.450;8.654;2023-02-12T05:28:32;97245.91;;;-1.51;97.48
44297;BME280;51842;47.450;8.654;2023-02-12T05:31:02;97249.44;;;-1.43;97.51
44297;BME280;51842;47.450;8.654;2023-02-12T05:33:32;97251.97;;;-1.33;96.42
44297;BME280;51842;47.450;8.654;2023-02-12T05:36:11;97248.38;;;-1.32;96.06
44297;BME280;51842;47.450;8.654;2023-02-12T05:38:38;97247.78;;;-1.26;95.47
44297;BME280;51842;47.450;8.654;2023-02-12T05:41:20;97255.50;;;-1.24;94.73
44297;BME280;51842;47.450;8.654;2023-02-12T05:43:49;97248.25;;;-1.30;94.80
44297;BME280;51842;47.450;8.654;2023-02-12T05:46:19;97250.69;;;-1.29;94.91
44297;BME280;51842;47.450;8.654;2023-02-12T05:48:48;97245.63;;;-1.30;95.06
44297;BME280;51842;47.450;8.654;2023-02-12T05:51:19;97252.50;;;-1.29;94.60
44297;BME280;51842;47.450;8.654;2023-02-12T05:53:49;97257.06;;;-1.31;94.41
44297;BME280;51842;47.450;8.654;2023-02-12T05:56:24;97255.72;;;-1.35;94.44
44297;BME280;51842;47.450;8.654;2023-02-12T05:58:59;97256.31;;;-1.42;93.34
44297;BME280;51842;47.450;8.654;2023-02-12T06:01:38;97255.56;;;-1.52;93.50
44297;BME280;51842;47.450;8.654;2023-02-12T06:04:12;97253.28;;;-1.65;94.23
44297;BME280;51842;47.450;8.654;2023-02-12T06:06:43;97243.31;;;-1.69;94.98
44297;BME280;51842;47.450;8.654;2023-02-12T06:09:12;97248.25;;;-1.76;96.25
44297;BME280;51842;47.450;8.654;2023-02-12T06:11:42;97245.94;;;-1.79;98.03
44297;BME280;51842;47.450;8.654;2023-02-12T06:14:15;97242.16;;;-1.67;97.71
44297;BME280;51842;47.450;8.654;2023-02-12T06:16:47;97247.03;;;-1.54;96.98
44297;BME280;51842;47.450;8.654;2023-02-12T06:19:14;97255.66;;;-1.44;95.83
44297;BME280;51842;47.450;8.654;2023-02-12T06:21:44;97253.91;;;-1.35;95.33
44297;BME280;51842;47.450;8.654;2023-02-12T06:24:21;97245.78;;;-1.32;95.34
44297;BME280;51842;47.450;8.654;2023-02-12T06:26:50;97237.63;;;-1.29;95.02
44297;BME280;51842;47.450;8.654;2023-02-12T06:29:18;97236.69;;;-1.28;94.56
44297;BME280;51842;47.450;8.654;2023-02-12T06:31:48;97234.50;;;-1.32;94.69
44297;BME280;51842;47.450;8.654;2023-02-12T06:34:15;97239.38;;;-1.37;94.88
44297;BME280;51842;47.450;8.654;2023-02-12T06:36:46;97239.38;;;-1.37;95.12
44297;BME280;51842;47.450;8.654;2023-02-12T06:39:15;97248.84;;;-1.36;95.44
44297;BME280;51842;47.450;8.654;2023-02-12T06:41:44;97246.16;;;-1.27;95.15
44297;BME280;51842;47.450;8.654;2023-02-12T06:44:15;97238.81;;;-1.23;94.53
44297;BME280;51842;47.450;8.654;2023-02-12T06:46:44;97240.19;;;-1.19;94.19
44297;BME280;51842;47.450;8.654;2023-02-12T06:49:13;97238.22;;;-1.17;93.31
44297;BME280;51842;47.450;8.654;2023-02-12T06:51:40;97245.94;;;-1.15;93.50
44297;BME280;51842;47.450;8.654;2023-02-12T06:54:18;97248.09;;;-1.11;93.07
44297;BME280;51842;47.450;8.654;2023-02-12T06:56:44;97249.28;;;-1.05;92.40
44297;BME280;51842;47.450;8.654;2023-02-12T06:59:16;97251.91;;;-1.05;92.30
44297;BME280;51842;47.450;8.654;2023-02-12T07:01:45;97251.91;;;-1.05;92.56
44297;BME280;51842;47.450;8.654;2023-02-12T07:04:11;97253.09;;;-1.00;92.19
44297;BME280;51842;47.450;8.654;2023-02-12T07:06:40;97254.59;;;-0.97;92.29
44297;BME280;51842;47.450;8.654;2023-02-12T07:09:06;97253.91;;;-0.99;92.08
44297;BME280;51842;47.450;8.654;2023-02-12T07:11:37;97252.28;;;-1.00;91.92
44297;BME280;51842;47.450;8.654;2023-02-12T07:14:03;97259.16;;;-0.99;92.17
44297;BME280;51842;47.450;8.654;2023-02-12T07:16:31;97265.19;;;-0.99;92.12
44297;BME280;51842;47.450;8.654;2023-02-12T07:19:00;97264.06;;;-0.96;91.86
44297;BME280;51842;47.450;8.654;2023-02-12T07:21:25;97267.69;;;-0.97;92.07
44297;BME280;51842;47.450;8.654;2023-02-12T07:23:54;97267.00;;;-0.99;91.95
44297;BME280;51842;47.450;8.654;2023-02-12T07:26:21;97267.81;;;-0.99;91.71
44297;BME280;51842;47.450;8.654;2023-02-12T07:28:49;97261.91;;;-1.01;91.29
44297;BME280;51842;47.450;8.654;2023-02-12T07:31:22;97266.63;;;-1.04;90.91
44297;BME280;51842;47.450;8.654;2023-02-12T07:33:55;97271.19;;;-1.06;91.67
44297;BME280;51842;47.450;8.654;2023-02-12T07:36:23;97266.78;;;-1.06;92.55
44297;BME280;51842;47.450;8.654;2023-02-12T07:38:50;97263.56;;;-1.00;92.72
44297;BME280;51842;47.450;8.654;2023-02-12T07:41:23;97268.72;;;-0.90;94.74
44297;BME280;51842;47.450;8.654;2023-02-12T07:44:03;97268.59;;;-0.62;93.71
44297;BME280;51842;47.450;8.654;2023-02-12T07:46:46;97272.59;;;-0.24;91.91
44297;BME280;51842;47.450;8.654;2023-02-12T07:49:22;97272.53;;;0.02;89.39
44297;BME280;51842;47.450;8.654;2023-02-12T07:51:51;97266.09;;;0.22;88.49
44297;BME280;51842;47.450;8.654;2023-02-12T07:54:20;97260.72;;;0.32;87.55
44297;BME280;51842;47.450;8.654;2023-02-12T07:56:48;97254.53;;;0.41;86.15
44297;BME280;51842;47.450;8.654;2023-02-12T07:59:22;97267.66;;;0.58;85.66
44297;BME280;51842;47.450;8.654;2023-02-12T08:01:51;97263.09;;;0.60;85.58
44297;BME280;51842;47.450;8.654;2023-02-12T08:04:22;97264.06;;;0.67;85.20
44297;BME280;51842;47.450;8.654;2023-02-12T08:06:53;97262.75;;;0.71;85.05
44297;BME280;51842;47.450;8.654;2023-02-12T08:09:27;97261.44;;;0.75;84.60
44297;BME280;51842;47.450;8.654;2023-02-12T08:11:55;97258.34;;;0.80;84.48
44297;BME280;51842;47.450;8.654;2023-02-12T08:14:22;97266.56;;;0.85;84.56
44297;BME280;51842;47.450;8.654;2023-02-12T08:16:49;97266.91;;;0.82;84.08
44297;BME280;51842;47.450;8.654;2023-02-12T08:19:19;97268.38;;;0.92;83.89
44297;BME280;51842;47.450;8.654;2023-02-12T08:21:53;97270.03;;;1.10;82.96
44297;BME280;51842;47.450;8.654;2023-02-12T08:24:20;97265.75;;;1.33;82.77
44297;BME280;51842;47.450;8.654;2023-02-12T08:26:46;97268.56;;;1.32;81.41
44297;BME280;51842;47.450;8.654;2023-02-12T08:29:18;97273.13;;;1.54;81.72
44297;BME280;51842;47.450;8.654;2023-02-12T08:31:48;97276.19;;;1.74;81.11
44297;BME280;51842;47.450;8.654;2023-02-12T08:34:28;97269.09;;;1.91;80.41
44297;BME280;51842;47.450;8.654;2023-02-12T08:36:57;97267.91;;;2.02;79.88
44297;BME280;51842;47.450;8.654;2023-02-12T08:39:27;97270.88;;;2.07;80.34
44297;BME280;51842;47.450;8.654;2023-02-12T08:41:56;97268.13;;;2.31;79.85
44297;BME280;51842;47.450;8.654;2023-02-12T08:44:23;97263.88;;;2.30;79.12
44297;BME280;51842;47.450;8.654;2023-02-12T08:46:51;97279.44;;;2.40;80.43
44297;BME280;51842;47.450;8.654;2023-02-12T08:49:28;97268.34;;;2.53;80.21
44297;BME280;51842;47.450;8.654;2023-02-12T08:51:57;97257.03;;;2.52;80.56
44297;BME280;51842;47.450;8.654;2023-02-12T08:54:29;97261.44;;;2.60;81.23
44297;BME280;51842;47.450;8.654;2023-02-12T08:56:59;97253.00;;;2.65;80.96
44297;BME280;51842;47.450;8.654;2023-02-12T08:59:29;97253.56;;;2.83;80.37
44297;BME280;51842;47.450;8.654;2023-02-12T09:02:04;97247.91;;;3.09;79.72
44297;BME280;51842;47.450;8.654;2023-02-12T09:04:35;97255.13;;;2.92;79.99
44297;BME280;51842;47.450;8.654;2023-02-12T09:07:01;97249.56;;;3.10;80.03
44297;BME280;51842;47.450;8.654;2023-02-12T09:09:29;97245.44;;;3.31;79.36
44297;BME280;51842;47.450;8.654;2023-02-12T09:11:55;97234.63;;;3.25;79.19
44297;BME280;51842;47.450;8.654;2023-02-12T09:14:21;97242.19;;;3.06;80.06
44297;BME280;51842;47.450;8.654;2023-02-12T09:16:50;97243.00;;;3.06;79.61
44297;BME280;51842;47.450;8.654;2023-02-12T09:19:20;97234.25;;;3.29;79.65
44297;BME280;51842;47.450;8.654;2023-02-12T09:21:54;97240.56;;;3.42;78.74
44297;BME280;51842;47.450;8.654;2023-02-12T09:24:20;97240.16;;;3.68;78.28
44297;BME280;51842;47.450;8.654;2023-02-12T09:26:46;97243.63;;;3.99;77.00
44297;BME280;51842;47.450;8.654;2023-02-12T09:29:12;97237.25;;;3.93;76.36
44297;BME280;51842;47.450;8.654;2023-02-12T09:31:44;97239.91;;;4.08;77.09
44297;BME280;51842;47.450;8.654;2023-02-12T09:34:10;97228.34;;;3.94;76.32
44297;BME280;51842;47.450;8.654;2023-02-12T09:36:35;97232.78;;;4.23;76.63
44297;BME280;51842;47.450;8.654;2023-02-12T09:39:02;97246.06;;;4.15;75.26
44297;BME280;51842;47.450;8.654;2023-02-12T09:44:54;97234.84;;;4.43;74.95
44297;BME280;51842;47.450;8.654;2023-02-12T09:50:56;97239.22;;;4.72;72.45
44297;BME280;51842;47.450;8.654;2023-02-12T09:53:29;97235.84;;;4.99;72.95
44297;BME280;51842;47.450;8.654;2023-02-12T09:55:58;97232.72;;;5.39;72.03
44297;BME280;51842;47.450;8.654;2023-02-12T09:59:11;97229.09;;;5.40;71.22
44297;BME280;51842;47.450;8.654;2023-02-12T10:01:43;97232.38;;;5.76;71.26
44297;BME280;51842;47.450;8.654;2023-02-12T10:04:09;97236.44;;;5.72;70.38
44297;BME280;51842;47.450;8.654;2023-02-12T10:06:53;97236.03;;;6.03;69.10
44297;BME280;51842;47.450;8.654;2023-02-12T10:13:06;97237.38;;;6.89;66.37
44297;BME280;51842;47.450;8.654;2023-02-12T10:27:52;97236.81;;;7.00;63.83
44297;BME280;51842;47.450;8.654;2023-02-12T10:30:55;97236.41;;;7.10;64.31
44297;BME280;51842;47.450;8.654;2023-02-12T10:33:50;97230.09;;;7.31;63.09
44297;BME280;51842;47.450;8.654;2023-02-12T10:36:40;97229.06;;;7.52;61.67
44297;BME280;51842;47.450;8.654;2023-02-12T10:42:07;97229.44;;;7.88;62.07
44297;BME280;51842;47.450;8.654;2023-02-12T10:44:34;97220.19;;;8.11;60.13
44297;BME280;51842;47.450;8.654;2023-02-12T10:47:00;97224.06;;;8.22;60.66
44297;BME280;51842;47.450;8.654;2023-02-12T10:49:31;97221.59;;;8.40;59.98
44297;BME280;51842;47.450;8.654;2023-02-12T10:52:40;97217.09;;;8.21;59.30
44297;BME280;51842;47.450;8.654;2023-02-12T10:57:59;97217.75;;;8.68;59.17
44297;BME280;51842;47.450;8.654;2023-02-12T11:00:35;97218.00;;;8.60;58.51
44297;BME280;51842;47.450;8.654;2023-02-12T11:05:42;97204.38;;;8.49;58.95
44297;BME280;51842;47.450;8.654;2023-02-12T11:08:35;97201.53;;;7.73;60.61
44297;BME280;51842;47.450;8.654;2023-02-12T11:11:20;97205.69;;;8.14;60.95
44297;BME280;51842;47.450;8.654;2023-02-12T11:14:06;97194.25;;;8.71;58.89
44297;BME280;51842;47.450;8.654;2023-02-12T11:17:17;97184.22;;;9.05;58.35
44297;BME280;51842;47.450;8.654;2023-02-12T11:19:44;97178.41;;;9.15;58.27
44297;BME280;51842;47.450;8.654;2023-02-12T11:22:13;97172.13;;;9.09;57.77
44297;BME280;51842;47.450;8.654;2023-02-12T11:25:00;97182.38;;;9.31;57.77
44297;BME280;51842;47.450;8.654;2023-02-12T11:27:30;97179.13;;;9.54;56.61
44297;BME280;51842;47.450;8.654;2023-02-12T11:30:16;97178.31;;;9.53;57.18
44297;BME280;51842;47.450;8.654;2023-02-12T11:32:42;97173.38;;;9.57;56.95
44297;BME280;51842;47.450;8.654;2023-02-12T11:35:23;97169.69;;;9.33;57.14
44297;BME280;51842;47.450;8.654;2023-02-12T11:37:59;97175.28;;;8.99;57.80
44297;BME280;51842;47.450;8.654;2023-02-12T11:40:31;97174.78;;;9.09;58.97
44297;BME280;51842;47.450;8.654;2023-02-12T11:43:04;97179.72;;;9.31;57.49
44297;BME280;51842;47.450;8.654;2023-02-12T11:45:43;97168.97;;;9.87;56.57
44297;BME280;51842;47.450;8.654;2023-02-12T11:48:39;97155.72;;;9.99;56.96
44297;BME280;51842;47.450;8.654;2023-02-12T11:51:28;97158.97;;;9.83;57.15
44297;BME280;51842;47.450;8.654;2023-02-12T11:54:00;97160.88;;;9.57;57.45
44297;BME280;51842;47.450;8.654;2023-02-12T11:56:46;97162.63;;;9.45;58.28
44297;BME280;51842;47.450;8.654;2023-02-12T11:59:41;97156.31;;;10.01;58.18
44297;BME280;51842;47.450;8.654;2023-02-12T12:02:33;97157.00;;;10.63;56.63
44297;BME280;51842;47.450;8.654;2023-02-12T12:05:21;97154.38;;;10.75;55.68
44297;BME280;51842;47.450;8.654;2023-02-12T12:11:31;97134.66;;;10.34;56.01
44297;BME280;51842;47.450;8.654;2023-02-12T12:17:05;97127.50;;;10.77;56.60
44297;BME280;51842;47.450;8.654;2023-02-12T12:20:21;97126.72;;;10.88;54.63
44297;BME280;51842;47.450;8.654;2023-02-12T12:23:05;97124.25;;;10.86;55.63
44297;BME280;51842;47.450;8.654;2023-02-12T12:31:57;97115.72;;;11.08;53.81
44297;BME280;51842;47.450;8.654;2023-02-12T12:34:33;97117.88;;;10.76;54.68
44297;BME280;51842;47.450;8.654;2023-02-12T12:53:36;97106.25;;;10.10;57.73
44297;BME280;51842;47.450;8.654;2023-02-12T12:56:48;97101.59;;;10.54;57.26
44297;BME280;51842;47.450;8.654;2023-02-12T13:03:15;97110.34;;;10.42;56.65
44297;BME280;51842;47.450;8.654;2023-02-12T13:06:33;97108.16;;;10.81;56.18
44297;BME280;51842;47.450;8.654;2023-02-12T13:15:54;97098.22;;;11.59;53.19
44297;BME280;51842;47.450;8.654;2023-02-12T13:22:15;97107.84;;;11.01;53.57
44297;BME280;51842;47.450;8.654;2023-02-12T13:25:03;97100.22;;;10.63;54.62
44297;BME280;51842;47.450;8.654;2023-02-12T13:27:38;97100.69;;;10.72;55.60
44297;BME280;51842;47.450;8.654;2023-02-12T13:30:48;97098.03;;;10.72;55.91
44297;BME280;51842;47.450;8.654;2023-02-12T13:36:14;97091.63;;;10.01;57.26
44297;BME280;51842;47.450;8.654;2023-02-12T13:39:26;97087.72;;;10.15;56.78
44297;BME280;51842;47.450;8.654;2023-02-12T13:42:07;97093.03;;;10.63;56.74
44297;BME280;51842;47.450;8.654;2023-02-12T13:57:27;97102.72;;;11.00;55.57
44297;BME280;51842;47.450;8.654;2023-02-12T13:59:56;97094.63;;;11.18;55.18
44297;BME280;51842;47.450;8.654;2023-02-12T14:05:30;97092.28;;;11.69;54.81
44297;BME280;51842;47.450;8.654;2023-02-12T14:08:03;97096.59;;;11.70;54.08
44297;BME280;51842;47.450;8.654;2023-02-12T14:10:41;97092.03;;;11.94;54.16
44297;BME280;51842;47.450;8.654;2023-02-12T14:13:22;97086.66;;;12.06;53.32
44297;BME280;51842;47.450;8.654;2023-02-12T14:15:55;97087.09;;;12.14;53.46
44297;BME280;51842;47.450;8.654;2023-02-12T14:23:42;97083.19;;;12.05;53.92
44297;BME280;51842;47.450;8.654;2023-02-12T14:26:23;97086.94;;;11.92;54.23
44297;BME280;51842;47.450;8.654;2023-02-12T14:29:18;97078.59;;;11.65;54.32
44297;BME280;51842;47.450;8.654;2023-02-12T14:31:49;97085.03;;;11.41;55.19
44297;BME280;51842;47.450;8.654;2023-02-12T14:37:09;97080.38;;;11.36;55.34
44297;BME280;51842;47.450;8.654;2023-02-12T14:39:35;97080.50;;;11.29;54.44
44297;BME280;51842;47.450;8.654;2023-02-12T14:42:41;97089.19;;;11.01;56.19
44297;BME280;51842;47.450;8.654;2023-02-12T14:44:57;97081.06;;;11.08;55.98
44297;BME280;51842;47.450;8.654;2023-02-12T14:50:13;97085.94;;;11.11;55.70
44297;BME280;51842;47.450;8.654;2023-02-12T14:52:52;97087.66;;;11.05;55.58
44297;BME280;51842;47.450;8.654;2023-02-12T14:55:30;97079.78;;;10.45;56.70
44297;BME280;51842;47.450;8.654;2023-02-12T14:58:12;97078.69;;;10.64;57.20
44297;BME280;51842;47.450;8.654;2023-02-12T15:00:47;97089.59;;;10.86;57.69
44297;BME280;51842;47.450;8.654;2023-02-12T15:03:45;97082.66;;;10.85;57.31
44297;BME280;51842;47.450;8.654;2023-02-12T15:06:20;97085.44;;;10.79;57.83
44297;BME280;51842;47.450;8.654;2023-02-12T15:09:06;97089.16;;;10.89;57.30
44297;BME280;51842;47.450;8.654;2023-02-12T15:12:33;97089.84;;;10.97;57.77
44297;BME280;51842;47.450;8.654;2023-02-12T15:15:46;97088.69;;;10.93;57.55
44297;BME280;51842;47.450;8.654;2023-02-12T15:19:00;97089.25;;;10.83;58.38
44297;BME280;51842;47.450;8.654;2023-02-12T15:21:32;97081.75;;;10.92;57.60
44297;BME280;51842;47.450;8.654;2023-02-12T15:24:13;97084.88;;;10.88;57.64
44297;BME280;51842;47.450;8.654;2023-02-12T15:26:58;97087.50;;;10.77;58.58
44297;BME280;51842;47.450;8.654;2023-02-12T15:29:45;97083.78;;;10.66;58.61
44297;BME280;51842;47.450;8.654;2023-02-12T15:32:27;97081.69;;;10.56;58.70
44297;BME280;51842;47.450;8.654;2023-02-12T15:34:56;97083.97;;;10.53;59.30
44297;BME280;51842;47.450;8.654;2023-02-12T15:37:28;97085.06;;;10.33;59.80
44297;BME280;51842;47.450;8.654;2023-02-12T15:40:01;97078.50;;;10.17;60.52
44297;BME280;51842;47.450;8.654;2023-02-12T15:42:37;97077.34;;;9.95;60.94
44297;BME280;51842;47.450;8.654;2023-02-12T15:47:42;97079.38;;;9.63;62.26
44297;BME280;51842;47.450;8.654;2023-02-12T15:50:17;97078.31;;;9.45;63.21
44297;BME280;51842;47.450;8.654;2023-02-12T15:52:46;97077.34;;;9.40;63.95
44297;BME280;51842;47.450;8.654;2023-02-12T15:55:19;97089.19;;;9.44;63.71
44297;BME280;51842;47.450;8.654;2023-02-12T15:57:58;97089.56;;;9.47;63.78
44297;BME280;51842;47.450;8.654;2023-02-12T16:00:44;97085.56;;;9.38;63.73
44297;BME280;51842;47.450;8.654;2023-02-12T16:03:29;97081.31;;;9.31;64.56
44297;BME280;51842;47.450;8.654;2023-02-12T16:06:13;97089.28;;;9.12;64.82
44297;BME280;51842;47.450;8.654;2023-02-12T16:09:08;97087.94;;;9.03;65.50
44297;BME280;51842;47.450;8.654;2023-02-12T16:11:44;97095.00;;;8.91;65.66
44297;BME280;51842;47.450;8.654;2023-02-12T16:14:42;97090.78;;;8.76;66.17
44297;BME280;51842;47.450;8.654;2023-02-12T16:17:36;97085.69;;;8.50;67.83
44297;BME280;51842;47.450;8.654;2023-02-12T16:20:22;97082.91;;;8.31;68.88
44297;BME280;51842;47.450;8.654;2023-02-12T16:22:52;97093.38;;;8.20;69.91